createdAt,value
2018-01-30T00:01:18.949Z,78.54
2018-01-30T00:03:51.650Z,78.60
2018-01-30T00:06:25.672Z,78.59
2018-01-30T00:08:54.451Z,78.82
2018-01-30T00:11:23.665Z,78.77
2018-01-30T00:13:53.275Z,78.54
2018-01-30T00:16:21.613Z,78.33
2018-01-30T00:19:01.176Z,78.78
2018-01-30T00:21:31.003Z,79.01
2018-01-30T00:24:13.913Z,78.84
2018-01-30T00:26:42.093Z,78.76
2018-01-30T00:29:12.392Z,78.47
2018-01-30T00:31:43.125Z,78.69
2018-01-30T00:34:12.427Z,78.53
2018-01-30T00:36:40.926Z,77.92
2018-01-30T00:39:11.450Z,78.19
2018-01-30T00:41:41.969Z,78.52
2018-01-30T00:44:11.607Z,78.11
2018-01-30T00:46:39.850Z,77.80
2018-01-30T00:49:19.121Z,77.71
2018-01-30T00:51:47.396Z,77.68
2018-01-30T00:54:17.107Z,77.50
2018-01-30T00:56:45.555Z,77.76
2018-01-30T00:59:19.680Z,77.59
2018-01-30T01:01:48.024Z,77.56
2018-01-30T01:04:16.051Z,77.22
2018-01-30T01:06:44.113Z,77.23
2018-01-30T01:09:12.583Z,77.38
2018-01-30T01:11:40.754Z,77.42
2018-01-30T01:14:09.152Z,77.28
2018-01-30T01:16:37.225Z,77.06
2018-01-30T01:19:05.369Z,77.05
2018-01-30T01:21:33.629Z,77.00
2018-01-30T01:24:01.655Z,77.24
2018-01-30T01:26:30.441Z,77.55
2018-01-30T01:28:58.842Z,77.23
2018-01-30T01:31:27.000Z,77.85
2018-01-30T01:34:01.069Z,77.55
2018-01-30T01:36:29.243Z,77.24
2018-01-30T01:38:58.007Z,77.64
2018-01-30T01:41:27.947Z,77.47
2018-01-30T01:43:56.024Z,77.46
2018-01-30T01:46:25.778Z,77.57
2018-01-30T01:48:53.882Z,77.76
2018-01-30T01:51:22.010Z,77.76
2018-01-30T01:53:51.042Z,77.82
2018-01-30T01:56:19.657Z,78.40
2018-01-30T01:58:48.525Z,78.20
2018-01-30T02:01:17.441Z,78.53
2018-01-30T02:03:45.713Z,78.57
2018-01-30T02:06:14.139Z,78.72
2018-01-30T02:08:42.758Z,78.56
2018-01-30T02:11:10.845Z,78.42
2018-01-30T02:13:38.883Z,78.23
2018-01-30T02:16:06.948Z,78.23
2018-01-30T02:18:35.281Z,77.99
2018-01-30T02:21:03.332Z,77.92
2018-01-30T02:23:32.362Z,77.98
2018-01-30T02:26:01.279Z,78.07
2018-01-30T02:28:29.920Z,77.85
2018-01-30T02:30:58.199Z,78.43
2018-01-30T02:33:26.387Z,77.98
2018-01-30T02:35:55.360Z,78.14
2018-01-30T02:38:25.228Z,78.04
2018-01-30T02:40:53.783Z,77.35
2018-01-30T02:43:22.139Z,77.68
2018-01-30T02:45:51.030Z,77.16
2018-01-30T02:48:19.443Z,77.21
2018-01-30T02:50:48.714Z,77.07
2018-01-30T02:53:17.704Z,77.28
2018-01-30T02:55:46.901Z,76.92
2018-01-30T02:58:19.070Z,76.93
2018-01-30T03:00:47.552Z,78.08
2018-01-30T03:03:15.962Z,78.17
2018-01-30T03:05:44.104Z,78.45
2018-01-30T03:08:12.841Z,78.66
2018-01-30T03:10:41.887Z,78.70
2018-01-30T03:13:13.053Z,78.96
2018-01-30T03:15:41.332Z,79.13
2018-01-30T03:18:12.533Z,79.19
2018-01-30T03:20:41.029Z,79.54
2018-01-30T03:23:09.858Z,79.76
2018-01-30T03:25:39.352Z,79.72
2018-01-30T03:28:08.318Z,79.41
2018-01-30T03:30:44.217Z,78.79
2018-01-30T03:33:13.007Z,79.17
2018-01-30T03:35:41.470Z,78.93
2018-01-30T03:38:10.327Z,78.50
2018-01-30T03:40:38.895Z,77.85
2018-01-30T03:43:08.088Z,77.26
2018-01-30T03:45:36.347Z,77.75
2018-01-30T03:48:05.283Z,77.25
2018-01-30T03:50:34.238Z,77.27
2018-01-30T03:53:04.271Z,77.50
2018-01-30T03:55:33.106Z,76.81
2018-01-30T03:58:01.324Z,76.82
2018-01-30T04:00:30.150Z,76.52
2018-01-30T04:02:59.046Z,76.64
2018-01-30T04:05:28.062Z,76.78
2018-01-30T04:07:56.204Z,76.33
2018-01-30T04:10:25.124Z,77.10
2018-01-30T04:12:53.474Z,77.34
2018-01-30T04:15:24.292Z,77.66
2018-01-30T04:17:53.220Z,77.64
2018-01-30T04:20:23.618Z,77.34
2018-01-30T04:22:52.139Z,77.22
2018-01-30T04:25:20.915Z,77.69
2018-01-30T04:27:49.574Z,77.62
2018-01-30T04:30:17.858Z,77.48
2018-01-30T04:32:47.021Z,77.58
2018-01-30T04:35:15.005Z,77.69
2018-01-30T04:37:43.408Z,77.66
2018-01-30T04:40:13.237Z,77.70
2018-01-30T04:42:41.624Z,77.76
2018-01-30T04:45:09.886Z,77.79
2018-01-30T04:47:38.067Z,77.14
2018-01-30T04:50:07.327Z,77.18
2018-01-30T04:52:35.502Z,77.02
2018-01-30T04:55:04.825Z,77.03
2018-01-30T04:57:34.248Z,77.26
2018-01-30T05:00:02.798Z,77.15
2018-01-30T05:02:30.886Z,77.56
2018-01-30T05:04:59.076Z,77.37
2018-01-30T05:07:27.769Z,76.57
2018-01-30T05:09:56.941Z,77.15
2018-01-30T05:12:25.144Z,76.70
2018-01-30T05:14:53.254Z,77.07
2018-01-30T05:17:22.242Z,77.21
2018-01-30T05:19:51.266Z,77.09
2018-01-30T05:22:22.337Z,77.38
2018-01-30T05:24:51.208Z,77.38
2018-01-30T05:27:19.711Z,77.18
2018-01-30T05:29:50.330Z,77.44
2018-01-30T05:32:19.094Z,77.84
2018-01-30T05:34:47.936Z,77.61
2018-01-30T05:37:17.060Z,78.21
2018-01-30T05:39:47.917Z,78.28
2018-01-30T05:42:16.577Z,78.22
2018-01-30T05:44:46.014Z,78.27
2018-01-30T05:47:14.075Z,78.48
2018-01-30T05:49:42.159Z,78.36
2018-01-30T05:52:10.535Z,77.92
2018-01-30T05:54:38.841Z,78.30
2018-01-30T05:57:06.886Z,78.08
2018-01-30T05:59:35.467Z,77.69
2018-01-30T06:02:03.648Z,78.05
2018-01-30T06:04:32.850Z,77.74
2018-01-30T06:07:01.633Z,77.77
2018-01-30T06:09:32.036Z,77.82
2018-01-30T06:12:00.134Z,78.01
2018-01-30T06:14:28.515Z,78.18
2018-01-30T06:16:57.729Z,77.33
2018-01-30T06:19:27.011Z,78.04
2018-01-30T06:21:55.490Z,77.89
2018-01-30T06:24:23.459Z,77.61
2018-01-30T06:26:52.632Z,77.88
2018-01-30T06:29:21.527Z,77.50
2018-01-30T06:31:49.758Z,77.76
2018-01-30T06:34:17.828Z,77.75
2018-01-30T06:36:46.822Z,77.82
2018-01-30T06:39:14.966Z,77.98
2018-01-30T06:41:43.449Z,77.92
2018-01-30T06:44:12.885Z,77.97
2018-01-30T06:46:41.334Z,78.27
2018-01-30T06:49:09.817Z,78.27
2018-01-30T06:51:41.269Z,78.88
2018-01-30T06:54:09.339Z,78.42
2018-01-30T06:56:38.023Z,78.21
2018-01-30T06:59:06.124Z,78.61
2018-01-30T07:01:35.230Z,78.84
2018-01-30T07:04:03.262Z,78.69
2018-01-30T07:06:31.743Z,78.70
2018-01-30T07:09:00.153Z,78.59
2018-01-30T07:11:28.402Z,78.86
2018-01-30T07:13:58.044Z,79.24
2018-01-30T07:16:26.500Z,79.44
2018-01-30T07:18:54.694Z,79.57
2018-01-30T07:21:22.766Z,79.70
2018-01-30T07:23:50.919Z,80.05
2018-01-30T07:26:19.090Z,80.11
2018-01-30T07:28:47.368Z,80.23
2018-01-30T07:31:15.436Z,79.84
2018-01-30T07:33:43.503Z,80.11
2018-01-30T07:36:11.569Z,79.78
2018-01-30T07:38:39.685Z,79.72
2018-01-30T07:41:08.697Z,79.29
2018-01-30T07:43:37.675Z,79.86
2018-01-30T07:46:05.746Z,79.47
2018-01-30T07:48:33.777Z,79.01
2018-01-30T07:51:01.815Z,78.79
2018-01-30T07:53:30.607Z,78.82
2018-01-30T07:55:58.821Z,78.88
2018-01-30T07:58:26.921Z,79.01
2018-01-30T08:00:55.176Z,78.96
2018-01-30T08:03:23.854Z,78.60
2018-01-30T08:05:51.929Z,78.85
2018-01-30T08:08:20.011Z,78.76
2018-01-30T08:10:49.378Z,78.68
2018-01-30T08:13:17.717Z,77.91
2018-01-30T08:15:46.549Z,78.13
2018-01-30T08:18:14.760Z,77.74
2018-01-30T08:20:43.692Z,77.26
2018-01-30T08:23:12.746Z,77.76
2018-01-30T08:25:40.922Z,77.44
2018-01-30T08:28:09.620Z,77.60
2018-01-30T08:30:40.417Z,77.30
2018-01-30T08:33:09.110Z,77.82
2018-01-30T08:35:38.139Z,77.85
2018-01-30T08:38:06.379Z,76.97
2018-01-30T08:40:36.112Z,77.09
2018-01-30T08:43:04.473Z,79.24
2018-01-30T08:45:33.519Z,78.18
2018-01-30T08:48:01.508Z,77.45
2018-01-30T08:50:30.502Z,75.89
2018-01-30T08:52:58.498Z,75.83
2018-01-30T08:55:28.439Z,75.90
2018-01-30T08:57:56.809Z,76.32
2018-01-30T09:00:25.501Z,75.73
2018-01-30T09:02:53.573Z,75.92
2018-01-30T09:05:22.670Z,76.21
2018-01-30T09:07:51.382Z,75.53
2018-01-30T09:10:19.944Z,75.90
2018-01-30T09:12:49.350Z,76.12
2018-01-30T09:15:18.264Z,75.32
2018-01-30T09:17:47.131Z,75.49
2018-01-30T09:20:16.226Z,75.69
2018-01-30T09:22:47.065Z,75.84
2018-01-30T09:25:15.955Z,75.63
2018-01-30T09:27:46.379Z,75.95
2018-01-30T09:30:14.576Z,76.02
2018-01-30T09:32:43.670Z,76.47
2018-01-30T09:35:12.698Z,76.31
2018-01-30T09:37:42.568Z,75.41
2018-01-30T09:40:10.653Z,76.28
2018-01-30T09:42:42.040Z,75.82
2018-01-30T09:45:10.085Z,75.20
2018-01-30T09:47:38.107Z,75.70
2018-01-30T09:50:06.175Z,75.21
2018-01-30T09:52:34.237Z,75.15
2018-01-30T09:55:02.729Z,75.25
2018-01-30T09:57:31.031Z,74.96
2018-01-30T09:59:59.093Z,75.09
2018-01-30T10:02:27.210Z,75.37
2018-01-30T10:04:56.417Z,75.38
2018-01-30T10:07:24.590Z,74.89
2018-01-30T10:09:52.555Z,74.54
2018-01-30T10:12:20.733Z,74.90
2018-01-30T10:14:49.177Z,74.42
2018-01-30T10:17:17.241Z,78.81
2018-01-30T10:19:46.172Z,73.90
2018-01-30T10:22:14.413Z,73.25
2018-01-30T10:24:42.572Z,73.48
2018-01-30T10:27:10.740Z,73.57
2018-01-30T10:29:40.068Z,74.39
2018-01-30T10:32:08.120Z,73.54
2018-01-30T10:34:36.500Z,74.86
2018-01-30T10:37:05.046Z,73.56
2018-01-30T10:39:34.247Z,73.70
2018-01-30T10:42:02.533Z,73.73
2018-01-30T10:44:31.513Z,73.31
2018-01-30T10:46:59.895Z,72.94
2018-01-30T10:49:28.001Z,73.20
2018-01-30T10:51:55.998Z,73.03
2018-01-30T10:54:24.443Z,72.64
2018-01-30T10:56:52.468Z,73.74
2018-01-30T10:59:20.515Z,73.41
2018-01-30T11:01:48.657Z,75.11
2018-01-30T11:04:17.539Z,72.22
2018-01-30T11:06:45.798Z,72.14
2018-01-30T11:09:13.927Z,72.46
2018-01-30T11:11:43.946Z,73.35
2018-01-30T11:14:13.808Z,73.70
2018-01-30T11:16:42.697Z,73.51
2018-01-30T11:19:11.199Z,74.38
2018-01-30T11:21:39.193Z,72.46
2018-01-30T11:24:07.615Z,72.45
2018-01-30T11:26:35.695Z,71.08
2018-01-30T11:29:04.479Z,71.40
2018-01-30T11:31:32.767Z,71.01
2018-01-30T11:34:00.836Z,71.06
2018-01-30T11:36:29.295Z,70.47
2018-01-30T11:38:57.554Z,70.75
2018-01-30T11:41:25.602Z,70.80
2018-01-30T11:43:54.555Z,70.52
2018-01-30T11:46:23.606Z,69.87
2018-01-30T11:48:52.098Z,70.74
2018-01-30T11:51:20.264Z,69.42
2018-01-30T11:53:48.558Z,70.16
2018-01-30T11:56:17.165Z,69.13
2018-01-30T11:58:45.760Z,70.29
2018-01-30T12:01:13.808Z,68.94
2018-01-30T12:03:42.611Z,69.30
2018-01-30T12:06:10.867Z,69.00
2018-01-30T12:08:38.939Z,69.07
2018-01-30T12:11:07.025Z,68.17
2018-01-30T12:13:36.128Z,69.36
2018-01-30T12:16:04.682Z,69.02
2018-01-30T12:18:33.819Z,68.84
2018-01-30T12:21:01.841Z,68.87
2018-01-30T12:23:29.907Z,68.58
2018-01-30T12:25:58.721Z,68.91
2018-01-30T12:28:26.811Z,67.99
2018-01-30T12:30:54.869Z,67.96
2018-01-30T12:33:23.034Z,68.31
2018-01-30T12:35:50.994Z,67.89
2018-01-30T12:38:19.058Z,67.77
2018-01-30T12:40:48.163Z,68.38
2018-01-30T12:43:16.696Z,69.56
2018-01-30T12:45:48.916Z,69.43
2018-01-30T12:48:17.489Z,70.23
2018-01-30T12:50:45.570Z,70.67
2018-01-30T12:53:13.557Z,70.10
2018-01-30T12:55:41.625Z,70.19
2018-01-30T12:58:09.889Z,69.90
2018-01-30T13:00:38.392Z,68.89
2018-01-30T13:03:07.430Z,69.43
2018-01-30T13:05:37.105Z,69.76
2018-01-30T13:08:05.140Z,68.97
2018-01-30T13:10:33.237Z,69.23
2018-01-30T13:13:01.683Z,69.42
2018-01-30T13:15:29.808Z,69.09
2018-01-30T13:17:57.912Z,69.27
2018-01-30T13:20:25.986Z,69.02
2018-01-30T13:22:54.822Z,69.64
2018-01-30T13:25:22.904Z,69.97
2018-01-30T13:27:50.942Z,70.43
2018-01-30T13:30:19.995Z,70.10
2018-01-30T13:32:49.099Z,69.46
2018-01-30T13:35:17.258Z,69.98
2018-01-30T13:37:46.022Z,69.88
2018-01-30T13:40:14.096Z,69.13
2018-01-30T13:42:42.123Z,69.37
2018-01-30T13:45:10.957Z,69.88
2018-01-30T13:47:39.009Z,70.55
2018-01-30T13:50:07.097Z,71.55
2018-01-30T13:52:36.021Z,71.25
2018-01-30T13:55:04.490Z,71.87
2018-01-30T13:57:33.145Z,72.47
2018-01-30T14:00:01.745Z,71.72
2018-01-30T14:02:29.826Z,71.98
2018-01-30T14:04:57.990Z,73.40
2018-01-30T14:07:26.059Z,74.63
2018-01-30T14:09:54.136Z,76.24
2018-01-30T14:12:22.201Z,74.58
2018-01-30T14:14:50.355Z,76.07
2018-01-30T14:17:18.356Z,76.34
2018-01-30T14:19:48.241Z,76.11
2018-01-30T14:22:16.898Z,76.71
2018-01-30T14:24:44.896Z,75.96
2018-01-30T14:27:12.987Z,76.41
2018-01-30T14:29:41.041Z,76.58
2018-01-30T14:32:09.141Z,77.11
2018-01-30T14:34:37.739Z,76.82
2018-01-30T14:37:06.734Z,76.12
2018-01-30T14:39:34.796Z,76.76
2018-01-30T14:42:02.857Z,76.78
2018-01-30T14:44:30.853Z,78.60
2018-01-30T14:46:58.898Z,78.69
2018-01-30T14:49:27.479Z,79.49
2018-01-30T14:51:55.761Z,79.04
2018-01-30T14:54:23.830Z,79.71
2018-01-30T14:56:53.237Z,79.46
2018-01-30T14:59:21.597Z,80.56
2018-01-30T15:01:49.910Z,80.76
2018-01-30T15:04:18.539Z,81.36
2018-01-30T15:06:46.620Z,81.20
2018-01-30T15:09:14.635Z,81.42
2018-01-30T15:11:42.708Z,81.30
2018-01-30T15:14:12.281Z,82.33
2018-01-30T15:16:41.156Z,81.76
2018-01-30T15:19:09.175Z,81.53
2018-01-30T15:21:37.362Z,82.15
2018-01-30T15:24:05.395Z,82.79
2018-01-30T15:26:34.479Z,81.78
2018-01-30T15:29:02.668Z,81.72
2018-01-30T15:31:30.869Z,81.32
2018-01-30T15:34:00.194Z,81.84
2018-01-30T15:36:31.274Z,81.21
2018-01-30T15:38:59.319Z,79.88
2018-01-30T15:41:27.251Z,80.37
2018-01-30T15:43:55.332Z,80.44
2018-01-30T15:46:23.324Z,81.02
2018-01-30T15:48:51.316Z,80.66
2018-01-30T15:51:19.246Z,80.92
2018-01-30T15:53:48.367Z,79.56
2018-01-30T15:56:16.288Z,81.06
2018-01-30T15:58:44.330Z,80.04
2018-01-30T16:01:13.431Z,79.00
2018-01-30T16:03:41.502Z,78.95
2018-01-30T16:06:09.465Z,78.98
2018-01-30T16:08:40.463Z,77.65
2018-01-30T16:11:09.372Z,78.66
2018-01-30T16:13:39.322Z,78.66
2018-01-30T16:16:08.680Z,77.66
2018-01-30T16:18:36.953Z,77.75
2018-01-30T16:21:04.957Z,78.79
2018-01-30T16:23:33.551Z,78.43
2018-01-30T16:26:02.391Z,78.66
2018-01-30T16:28:32.286Z,78.32
2018-01-30T16:31:00.356Z,78.77
2018-01-30T16:33:28.389Z,78.67
2018-01-30T16:35:56.480Z,78.21
2018-01-30T16:38:25.398Z,78.56
2018-01-30T16:40:54.243Z,78.05
2018-01-30T16:43:22.189Z,78.68
2018-01-30T16:45:50.294Z,78.34
2018-01-30T16:48:18.365Z,77.78
2018-01-30T16:50:46.381Z,78.20
2018-01-30T16:53:14.544Z,77.90
2018-01-30T16:55:43.527Z,78.23
2018-01-30T16:58:11.577Z,77.65
2018-01-30T17:00:39.550Z,78.17
2018-01-30T17:03:07.493Z,78.69
2018-01-30T17:05:35.560Z,77.82
2018-01-30T17:08:03.815Z,77.63
2018-01-30T17:10:33.197Z,77.92
2018-01-30T17:13:02.156Z,77.55
2018-01-30T17:15:30.841Z,77.79
2018-01-30T17:17:58.863Z,77.69
2018-01-30T17:20:26.793Z,77.42
2018-01-30T17:22:54.844Z,77.90
2018-01-30T17:25:23.127Z,77.76
2018-01-30T17:27:51.615Z,77.64
2018-01-30T17:30:19.657Z,77.48
2018-01-30T17:32:47.627Z,77.63
2018-01-30T17:35:15.566Z,78.15
2018-01-30T17:37:43.668Z,78.82
2018-01-30T17:40:11.614Z,79.45
2018-01-30T17:42:39.565Z,79.13
2018-01-30T17:45:07.458Z,78.53
2018-01-30T17:47:36.377Z,78.42
2018-01-30T17:50:04.399Z,78.77
2018-01-30T17:52:32.981Z,78.86
2018-01-30T17:55:01.871Z,79.08
2018-01-30T17:57:30.108Z,78.72
2018-01-30T17:59:58.248Z,79.17
2018-01-30T18:02:27.141Z,79.18
2018-01-30T18:04:56.078Z,78.66
2018-01-30T18:07:26.127Z,78.82
2018-01-30T18:09:54.126Z,79.43
2018-01-30T18:12:22.326Z,79.49
2018-01-30T18:14:50.811Z,80.12
2018-01-30T18:17:18.991Z,80.01
2018-01-30T18:19:46.960Z,80.34
2018-01-30T18:22:15.150Z,80.03
2018-01-30T18:24:43.411Z,80.81
2018-01-30T18:27:11.792Z,81.17
2018-01-30T18:29:39.778Z,81.21
2018-01-30T18:32:07.733Z,81.07
2018-01-30T18:34:35.796Z,80.45
2018-01-30T18:37:03.869Z,80.89
2018-01-30T18:39:32.143Z,80.96
2018-01-30T18:42:00.399Z,81.01
2018-01-30T18:44:28.590Z,81.27
2018-01-30T18:46:56.626Z,80.98
2018-01-30T18:49:24.561Z,81.70
2018-01-30T18:51:52.486Z,81.60
2018-01-30T18:54:20.522Z,81.83
2018-01-30T18:56:48.954Z,82.47
2018-01-30T18:59:16.911Z,82.38
2018-01-30T19:01:44.885Z,82.72
2018-01-30T19:04:12.843Z,82.82
2018-01-30T19:06:41.751Z,82.89
2018-01-30T19:09:14.497Z,81.82
2018-01-30T19:11:43.798Z,82.16
2018-01-30T19:14:12.636Z,81.88
2018-01-30T19:16:41.367Z,82.54
2018-01-30T19:19:11.210Z,82.61
2018-01-30T19:21:40.499Z,83.02
2018-01-30T19:24:10.103Z,81.64
2018-01-30T19:26:38.291Z,81.76
2018-01-30T19:29:06.530Z,81.55
2018-01-30T19:31:34.594Z,81.76
2018-01-30T19:34:06.040Z,81.67
2018-01-30T19:36:37.489Z,81.57
2018-01-30T19:39:06.085Z,80.86
2018-01-30T19:41:35.841Z,81.27
2018-01-30T19:44:04.364Z,81.58
2018-01-30T19:46:32.816Z,81.82
2018-01-30T19:49:01.486Z,81.14
2018-01-30T19:51:31.947Z,81.63
2018-01-30T19:54:00.437Z,81.47
2018-01-30T19:56:29.595Z,80.50
2018-01-30T19:59:04.835Z,80.75
2018-01-30T20:01:33.133Z,80.39
2018-01-30T20:04:02.758Z,80.16
2018-01-30T20:06:32.330Z,80.33
2018-01-30T20:09:05.232Z,80.52
2018-01-30T20:11:36.393Z,81.44
2018-01-30T20:14:06.989Z,80.89
2018-01-30T20:16:37.825Z,81.28
2018-01-30T20:19:06.961Z,81.43
2018-01-30T20:21:35.847Z,79.97
2018-01-30T20:24:04.710Z,80.60
2018-01-30T20:26:39.056Z,80.49
2018-01-30T20:29:07.333Z,80.74
2018-01-30T20:31:40.775Z,81.20
2018-01-30T20:34:10.848Z,81.12
2018-01-30T20:36:39.817Z,81.33
2018-01-30T20:39:08.731Z,80.59
2018-01-30T20:41:39.030Z,80.55
2018-01-30T20:44:09.145Z,80.33
2018-01-30T20:46:40.191Z,81.20
2018-01-30T20:49:08.390Z,80.68
2018-01-30T20:51:40.015Z,80.88
2018-01-30T20:54:08.604Z,80.80
2018-01-30T20:56:36.890Z,80.58
2018-01-30T20:59:05.327Z,81.36
2018-01-30T21:01:33.269Z,81.55
2018-01-30T21:04:01.181Z,81.62
2018-01-30T21:06:29.137Z,81.51
2018-01-30T21:08:57.058Z,81.30
2018-01-30T21:11:24.978Z,81.97
2018-01-30T21:13:53.340Z,81.59
2018-01-30T21:16:21.236Z,81.23
2018-01-30T21:18:49.207Z,81.33
2018-01-30T21:21:17.156Z,81.73
2018-01-30T21:23:45.061Z,81.61
2018-01-30T21:26:12.997Z,81.91
2018-01-30T21:28:40.957Z,81.84
2018-01-30T21:31:08.911Z,82.09
2018-01-30T21:33:37.102Z,82.24
2018-01-30T21:36:05.030Z,81.14
2018-01-30T21:38:33.181Z,82.10
2018-01-30T21:41:01.107Z,82.68
2018-01-30T21:43:29.461Z,82.74
2018-01-30T21:45:57.394Z,81.92
2018-01-30T21:48:25.347Z,82.99
2018-01-30T21:50:53.557Z,83.06
2018-01-30T21:53:21.480Z,83.59
2018-01-30T21:55:49.409Z,83.41
2018-01-30T21:58:17.330Z,83.00
2018-01-30T22:00:45.299Z,83.02
2018-01-30T22:03:13.201Z,83.90
2018-01-30T22:05:41.145Z,83.91
2018-01-30T22:08:09.155Z,83.32
2018-01-30T22:10:37.061Z,83.78
2018-01-30T22:13:05.028Z,82.94
2018-01-30T22:15:32.980Z,83.10
2018-01-30T22:18:00.916Z,83.53
2018-01-30T22:20:28.845Z,83.41
2018-01-30T22:22:56.967Z,85.70
2018-01-30T22:25:24.890Z,83.87
2018-01-30T22:27:52.890Z,83.94
2018-01-30T22:30:20.838Z,83.97
2018-01-30T22:32:48.798Z,84.08
2018-01-30T22:35:16.693Z,83.69
2018-01-30T22:37:44.646Z,84.12
2018-01-30T22:40:12.589Z,84.32
2018-01-30T22:42:40.554Z,85.12
2018-01-30T22:45:08.645Z,83.93
